Time;durP1;ratioP1;P1;durP2;ratioP2;P2;SDS_P1;SDS_P2;PMS_P1;PMS_P2;Temp;Humidity;BMP_temperature;BMP_pressure;BME280_temperature;BME280_humidity;BME280_pressure;Samples;Min_cycle;Max_cycle;Signal;HPM_P1;HPM_P2
2021/07/25 00:00:44;;;;;;;10.03;5.07;;;;;;;;;;5052468;28;20919;-73
2021/07/25 00:03:10;;;;;;;6.60;4.97;;;;;;;;;;5051477;28;20954;-73
2021/07/25 00:05:36;;;;;;;9.80;5.07;;;;;;;;;;5039670;28;20438;-73
2021/07/25 00:08:02;;;;;;;6.60;4.20;;;;;;;;;;5032697;28;20476;-73
2021/07/25 00:10:28;;;;;;;12.37;6.40;;;;;;;;;;5045438;28;20429;-73
2021/07/25 00:12:55;;;;;;;7.87;5.07;;;;;;;;;;5052877;28;20798;-73
2021/07/25 00:15:21;;;;;;;10.40;5.83;;;;;;;;;;5052638;28;20907;-73
2021/07/25 00:17:47;;;;;;;10.90;4.70;;;;;;;;;;5052431;28;20479;-72
2021/07/25 00:20:13;;;;;;;8.83;5.50;;;;;;;;;;5052488;28;20406;-72
2021/07/25 00:22:40;;;;;;;7.17;5.20;;;;;;;;;;5052585;28;20452;-72
2021/07/25 00:25:18;;;;;;;10.27;5.87;;;;;;;;;;5043964;28;20599;-73
2021/07/25 00:27:44;;;;;;;11.40;5.50;;;;;;;;;;5033017;28;20421;-72
2021/07/25 00:30:13;;;;;;;9.93;6.07;;;;;;;;;;5041996;28;20450;-72
2021/07/25 00:32:40;;;;;;;6.50;5.27;;;;;;;;;;5051222;28;20444;-72
2021/07/25 00:35:06;;;;;;;8.43;5.70;;;;;;;;;;5044413;28;20439;-72
2021/07/25 00:37:33;;;;;;;8.10;5.60;;;;;;;;;;5032639;28;20418;-72
2021/07/25 00:39:59;;;;;;;6.50;5.30;;;;;;;;;;5040238;28;20912;-72
2021/07/25 00:42:25;;;;;;;8.50;5.67;;;;;;;;;;5052960;28;20946;-72
2021/07/25 00:44:51;;;;;;;11.03;5.70;;;;;;;;;;5051213;28;20425;-72
2021/07/25 00:47:18;;;;;;;7.43;5.97;;;;;;;;;;5052623;28;20426;-72
2021/07/25 00:49:44;;;;;;;10.13;5.70;;;;;;;;;;5048520;28;20493;-72
2021/07/25 00:52:10;;;;;;;11.57;6.10;;;;;;;;;;5060198;28;20432;-72
2021/07/25 00:54:36;;;;;;;14.23;6.90;;;;;;;;;;5072843;28;20512;-72
2021/07/25 00:57:03;;;;;;;11.13;6.77;;;;;;;;;;5056603;28;20429;-72
2021/07/25 00:59:29;;;;;;;8.20;6.10;;;;;;;;;;5055970;28;20429;-72
2021/07/25 01:01:55;;;;;;;9.40;6.10;;;;;;;;;;5054992;28;20459;-72
2021/07/25 01:04:32;;;;;;;10.07;6.40;;;;;;;;;;5055850;28;20830;-72
2021/07/25 01:06:58;;;;;;;11.93;5.97;;;;;;;;;;5036049;28;20460;-72
2021/07/25 01:09:43;;;;;;;8.20;6.10;;;;;;;;;;5037391;28;20414;-73
2021/07/25 01:12:12;;;;;;;8.57;6.10;;;;;;;;;;5045784;28;20849;-72
2021/07/25 01:14:39;;;;;;;9.97;5.77;;;;;;;;;;5043284;28;20412;-72
2021/07/25 01:17:23;;;;;;;13.07;6.70;;;;;;;;;;5056730;28;20834;-72
2021/07/25 01:19:52;;;;;;;8.73;6.20;;;;;;;;;;5056519;28;20761;-72
2021/07/25 01:22:18;;;;;;;8.73;6.77;;;;;;;;;;5055942;28;20472;-72
2021/07/25 01:24:45;;;;;;;8.73;6.17;;;;;;;;;;5053805;28;20430;-72
2021/07/25 01:27:13;;;;;;;11.27;7.20;;;;;;;;;;5056040;28;20433;-72
2021/07/25 01:29:41;;;;;;;7.80;5.97;;;;;;;;;;5058091;28;20412;-73
2021/07/25 01:32:07;;;;;;;12.33;5.87;;;;;;;;;;5057204;28;20547;-72
2021/07/25 01:34:34;;;;;;;8.73;6.17;;;;;;;;;;5057603;28;20437;-73
2021/07/25 01:37:01;;;;;;;10.60;6.30;;;;;;;;;;5060976;28;20442;-73
2021/07/25 01:39:27;;;;;;;9.13;6.30;;;;;;;;;;5063007;28;20492;-73
2021/07/25 01:41:54;;;;;;;10.10;7.30;;;;;;;;;;5057385;28;20807;-73
2021/07/25 01:44:20;;;;;;;8.77;6.10;;;;;;;;;;5037144;28;20422;-72
2021/07/25 01:46:46;;;;;;;9.63;5.73;;;;;;;;;;5049164;28;20452;-72
2021/07/25 01:49:12;;;;;;;8.27;5.50;;;;;;;;;;5055860;28;20787;-73
2021/07/25 01:51:38;;;;;;;9.20;6.60;;;;;;;;;;5042927;28;20445;-73
2021/07/25 01:54:05;;;;;;;10.27;6.17;;;;;;;;;;5035274;28;20411;-73
2021/07/25 01:56:31;;;;;;;11.60;7.03;;;;;;;;;;5036121;28;20443;-73
2021/07/25 01:58:58;;;;;;;9.70;6.80;;;;;;;;;;5035797;28;20472;-73
2021/07/25 02:01:24;;;;;;;11.50;6.93;;;;;;;;;;5045832;28;20445;-72
2021/07/25 02:03:51;;;;;;;8.67;6.87;;;;;;;;;;5054016;28;20493;-73
2021/07/25 02:06:17;;;;;;;11.57;7.07;;;;;;;;;;5046176;28;21021;-73
2021/07/25 02:08:43;;;;;;;12.17;6.80;;;;;;;;;;5035228;28;20407;-72
2021/07/25 02:11:09;;;;;;;11.30;6.53;;;;;;;;;;5042484;28;20910;-73
2021/07/25 02:13:35;;;;;;;12.07;6.90;;;;;;;;;;5055072;28;20425;-72
2021/07/25 02:16:02;;;;;;;10.07;6.10;;;;;;;;;;5053469;28;20461;-73
2021/07/25 02:18:28;;;;;;;10.17;6.20;;;;;;;;;;5054905;28;20428;-73
2021/07/25 02:20:54;;;;;;;14.70;8.00;;;;;;;;;;5054371;28;20432;-73
2021/07/25 02:23:20;;;;;;;7.70;5.77;;;;;;;;;;5034931;28;20809;-73
2021/07/25 02:25:46;;;;;;;8.77;6.17;;;;;;;;;;5038407;28;20508;-72
2021/07/25 02:28:12;;;;;;;10.37;6.63;;;;;;;;;;5054701;28;20398;-72
2021/07/25 02:30:39;;;;;;;10.37;6.50;;;;;;;;;;5054612;28;20736;-72
2021/07/25 02:33:05;;;;;;;11.20;6.17;;;;;;;;;;5054199;28;20406;-72
2021/07/25 02:35:32;;;;;;;11.67;7.30;;;;;;;;;;5054180;28;20410;-72
2021/07/25 02:37:58;;;;;;;11.13;6.67;;;;;;;;;;5054545;28;20537;-72
2021/07/25 02:40:24;;;;;;;11.70;6.50;;;;;;;;;;5053929;28;20860;-72
2021/07/25 02:42:50;;;;;;;13.23;7.37;;;;;;;;;;5055147;28;20461;-71
2021/07/25 02:45:16;;;;;;;9.50;6.87;;;;;;;;;;5034284;28;20410;-72
2021/07/25 02:47:42;;;;;;;9.40;6.43;;;;;;;;;;5047528;28;20458;-72
2021/07/25 02:50:08;;;;;;;8.07;6.57;;;;;;;;;;5068688;28;20427;-72
2021/07/25 02:52:35;;;;;;;13.57;7.70;;;;;;;;;;5073913;28;20429;-72
2021/07/25 02:55:01;;;;;;;14.53;7.30;;;;;;;;;;5074126;28;20401;-72
2021/07/25 02:57:27;;;;;;;12.37;7.30;;;;;;;;;;5072841;28;20448;-72
2021/07/25 02:59:53;;;;;;;9.00;6.17;;;;;;;;;;5074372;28;20405;-72
2021/07/25 03:02:19;;;;;;;11.60;6.10;;;;;;;;;;5058301;28;20503;-72
2021/07/25 03:04:47;;;;;;;9.83;6.10;;;;;;;;;;5054254;28;20442;-72
2021/07/25 03:07:13;;;;;;;9.10;6.63;;;;;;;;;;5039435;28;20572;-72
2021/07/25 03:09:39;;;;;;;18.47;6.47;;;;;;;;;;5038211;28;20446;-72
2021/07/25 03:12:06;;;;;;;10.83;5.87;;;;;;;;;;5033898;28;20888;-72
2021/07/25 03:14:32;;;;;;;11.13;6.83;;;;;;;;;;5033624;28;20418;-72
2021/07/25 03:16:58;;;;;;;8.37;5.03;;;;;;;;;;5055868;28;20437;-72
2021/07/25 03:19:24;;;;;;;8.97;6.47;;;;;;;;;;5074044;28;20406;-72
2021/07/25 03:21:50;;;;;;;11.07;5.97;;;;;;;;;;5053496;28;20486;-72
2021/07/25 03:24:16;;;;;;;11.67;6.93;;;;;;;;;;5043650;28;21009;-72
2021/07/25 03:26:42;;;;;;;9.80;6.77;;;;;;;;;;5053621;28;20430;-73
2021/07/25 03:29:08;;;;;;;10.63;5.97;;;;;;;;;;5052418;28;20834;-73
2021/07/25 03:31:34;;;;;;;9.77;5.77;;;;;;;;;;5034004;28;20415;-72
2021/07/25 03:34:01;;;;;;;14.00;7.53;;;;;;;;;;5033742;28;20399;-72
2021/07/25 03:36:27;;;;;;;8.77;5.30;;;;;;;;;;5039516;28;20442;-72
2021/07/25 03:38:53;;;;;;;13.57;6.10;;;;;;;;;;5053348;28;20497;-72
2021/07/25 03:41:19;;;;;;;13.93;5.50;;;;;;;;;;5052923;28;20414;-72
2021/07/25 03:43:45;;;;;;;10.60;6.27;;;;;;;;;;5053628;28;20407;-71
2021/07/25 03:46:11;;;;;;;10.13;6.00;;;;;;;;;;5055655;28;20998;-72
2021/07/25 03:48:38;;;;;;;8.50;5.53;;;;;;;;;;5073238;28;20412;-72
2021/07/25 03:51:04;;;;;;;13.33;5.57;;;;;;;;;;5069240;28;20405;-72
2021/07/25 03:53:30;;;;;;;11.50;6.00;;;;;;;;;;5053123;28;20441;-72
2021/07/25 03:55:56;;;;;;;9.03;5.80;;;;;;;;;;5064809;28;20802;-72
2021/07/25 03:58:22;;;;;;;9.83;5.00;;;;;;;;;;5071733;28;20455;-72
2021/07/25 04:00:48;;;;;;;8.40;5.40;;;;;;;;;;5071697;28;20822;-72
2021/07/25 04:03:14;;;;;;;8.80;5.17;;;;;;;;;;5052626;28;20453;-72
2021/07/25 04:05:40;;;;;;;10.20;5.87;;;;;;;;;;5052763;28;20414;-73
2021/07/25 04:08:07;;;;;;;15.00;5.60;;;;;;;;;;5052415;28;20534;-73
2021/07/25 04:10:33;;;;;;;9.40;5.20;;;;;;;;;;5053172;28;20406;-73
2021/07/25 04:13:00;;;;;;;9.83;6.70;;;;;;;;;;5053436;28;20946;-72
2021/07/25 04:15:26;;;;;;;10.17;5.80;;;;;;;;;;5052833;28;20460;-72
2021/07/25 04:17:52;;;;;;;12.33;5.20;;;;;;;;;;5036719;28;20943;-73
2021/07/25 04:20:18;;;;;;;10.50;5.20;;;;;;;;;;5034075;28;20403;-73
2021/07/25 04:22:44;;;;;;;17.53;6.13;;;;;;;;;;5048605;28;20466;-73
2021/07/25 04:25:10;;;;;;;9.50;6.47;;;;;;;;;;5053050;28;20409;-73
2021/07/25 04:27:36;;;;;;;9.30;6.07;;;;;;;;;;5064444;28;20525;-72
2021/07/25 04:30:03;;;;;;;7.20;5.37;;;;;;;;;;5038672;28;20425;-73
2021/07/25 04:32:29;;;;;;;11.97;5.30;;;;;;;;;;5054284;28;20465;-73
2021/07/25 04:34:55;;;;;;;11.70;5.93;;;;;;;;;;5042227;28;20421;-73
2021/07/25 04:37:31;;;;;;;7.03;5.40;;;;;;;;;;5056669;28;20424;-73
2021/07/25 04:39:57;;;;;;;10.40;6.00;;;;;;;;;;5058424;28;20464;-73
2021/07/25 04:42:26;;;;;;;8.17;4.80;;;;;;;;;;5076700;28;20508;-73
2021/07/25 04:45:06;;;;;;;12.00;5.30;;;;;;;;;;5074487;28;20491;-72
2021/07/25 04:47:35;;;;;;;9.47;5.73;;;;;;;;;;5076696;28;20917;-73
2021/07/25 04:50:01;;;;;;;9.27;5.70;;;;;;;;;;5074592;28;20424;-72
2021/07/25 04:52:30;;;;;;;8.37;5.80;;;;;;;;;;5076673;28;20459;-73
2021/07/25 04:54:58;;;;;;;7.00;5.03;;;;;;;;;;5073516;28;20480;-73
2021/07/25 04:57:25;;;;;;;8.60;5.57;;;;;;;;;;5056410;28;20918;-72
2021/07/25 04:59:54;;;;;;;12.00;5.20;;;;;;;;;;5056892;28;20412;-73
2021/07/25 05:02:23;;;;;;;7.50;6.50;;;;;;;;;;5043370;28;20465;-73
2021/07/25 05:04:49;;;;;;;8.93;5.90;;;;;;;;;;5037434;28;20498;-72
2021/07/25 05:07:16;;;;;;;10.23;6.20;;;;;;;;;;5076892;28;20853;-73
2021/07/25 05:09:42;;;;;;;8.13;5.70;;;;;;;;;;5075826;28;20409;-72
2021/07/25 05:12:41;;;;;;;10.93;6.37;;;;;;;;;;5056165;28;20455;-72
2021/07/25 05:15:12;;;;;;;7.10;6.13;;;;;;;;;;5008924;28;20830;-73
2021/07/25 05:17:48;;;;;;;7.50;5.50;;;;;;;;;;5036202;28;20509;-73
2021/07/25 05:20:15;;;;;;;7.90;5.50;;;;;;;;;;5037215;28;20413;-72
2021/07/25 05:22:53;;;;;;;7.60;6.00;;;;;;;;;;5036147;28;20453;-72
2021/07/25 05:25:21;;;;;;;7.93;5.40;;;;;;;;;;5046055;28;20440;-73
2021/07/25 05:27:48;;;;;;;7.43;5.60;;;;;;;;;;5075978;28;20818;-72
2021/07/25 05:30:15;;;;;;;8.67;5.57;;;;;;;;;;5071636;28;20513;-72
2021/07/25 05:32:42;;;;;;;5.80;4.57;;;;;;;;;;5056133;28;20402;-72
2021/07/25 05:35:08;;;;;;;7.83;5.53;;;;;;;;;;5054565;28;20437;-71
2021/07/25 05:37:34;;;;;;;8.90;5.80;;;;;;;;;;5034395;28;20439;-72
2021/07/25 05:40:00;;;;;;;6.87;5.20;;;;;;;;;;5035990;28;20549;-72
2021/07/25 05:42:26;;;;;;;7.47;5.20;;;;;;;;;;5035763;28;20449;-73
2021/07/25 05:44:52;;;;;;;13.70;6.83;;;;;;;;;;5035155;28;20413;-72
2021/07/25 05:47:18;;;;;;;9.13;5.30;;;;;;;;;;5075116;28;20489;-73
2021/07/25 05:49:44;;;;;;;7.80;6.03;;;;;;;;;;5075626;28;20401;-73
2021/07/25 05:52:10;;;;;;;8.53;4.77;;;;;;;;;;5073819;28;20435;-72
2021/07/25 05:54:37;;;;;;;8.00;5.40;;;;;;;;;;5075501;28;20426;-72
2021/07/25 05:57:03;;;;;;;11.20;5.90;;;;;;;;;;5055192;28;20450;-72
2021/07/25 05:59:29;;;;;;;9.27;5.60;;;;;;;;;;5055306;28;20402;-73
2021/07/25 06:01:55;;;;;;;10.13;7.30;;;;;;;;;;5055802;28;20460;-72
2021/07/25 06:04:21;;;;;;;13.77;5.80;;;;;;;;;;5055207;28;20413;-73
2021/07/25 06:06:47;;;;;;;10.40;6.07;;;;;;;;;;5055017;28;20456;-73
2021/07/25 06:09:13;;;;;;;9.50;6.20;;;;;;;;;;5055125;28;20417;-72
2021/07/25 06:11:39;;;;;;;6.73;5.10;;;;;;;;;;5040905;28;20423;-72
2021/07/25 06:14:05;;;;;;;8.97;6.47;;;;;;;;;;5035592;28;20740;-72
2021/07/25 06:16:32;;;;;;;8.60;5.50;;;;;;;;;;5035092;28;20592;-72
2021/07/25 06:18:58;;;;;;;8.50;5.90;;;;;;;;;;5035012;28;20403;-72
2021/07/25 06:21:26;;;;;;;12.00;6.07;;;;;;;;;;5055590;28;20416;-72
2021/07/25 06:23:53;;;;;;;11.73;6.70;;;;;;;;;;5074747;28;20481;-72
2021/07/25 06:26:19;;;;;;;7.53;5.70;;;;;;;;;;5073614;28;20445;-72
2021/07/25 06:28:45;;;;;;;7.60;5.93;;;;;;;;;;5074716;28;20398;-72
2021/07/25 06:31:12;;;;;;;7.00;5.13;;;;;;;;;;5072903;28;20425;-72
2021/07/25 06:33:38;;;;;;;14.83;6.17;;;;;;;;;;5074807;28;20397;-72
2021/07/25 06:36:04;;;;;;;9.10;5.23;;;;;;;;;;5067947;28;20528;-71
2021/07/25 06:38:31;;;;;;;6.67;5.07;;;;;;;;;;5074898;28;20814;-71
2021/07/25 06:40:57;;;;;;;6.17;5.13;;;;;;;;;;5072758;28;20423;-73
2021/07/25 06:43:23;;;;;;;5.97;4.73;;;;;;;;;;5075149;28;21095;-73
2021/07/25 06:45:50;;;;;;;8.57;5.43;;;;;;;;;;5075221;28;20435;-73
2021/07/25 06:48:22;;;;;;;5.73;4.73;;;;;;;;;;5079377;28;20394;-73
2021/07/25 06:50:49;;;;;;;5.63;4.80;;;;;;;;;;5074017;28;20423;-73
2021/07/25 06:53:15;;;;;;;6.60;4.57;;;;;;;;;;5037640;28;20411;-73
2021/07/25 06:55:41;;;;;;;7.37;4.80;;;;;;;;;;5041865;28;20445;-73
2021/07/25 06:58:07;;;;;;;5.70;4.63;;;;;;;;;;5060879;28;20426;-73
2021/07/25 07:00:34;;;;;;;6.93;5.57;;;;;;;;;;5052791;28;20405;-72
2021/07/25 07:03:00;;;;;;;8.83;4.77;;;;;;;;;;5034763;28;20468;-73
2021/07/25 07:05:30;;;;;;;7.03;4.80;;;;;;;;;;5040610;28;20456;-72
2021/07/25 07:08:00;;;;;;;5.70;4.83;;;;;;;;;;5073616;28;20441;-71
2021/07/25 07:10:28;;;;;;;7.00;4.50;;;;;;;;;;5071800;28;20825;-72
2021/07/25 07:12:55;;;;;;;5.60;4.50;;;;;;;;;;5060699;28;20453;-73
2021/07/25 07:15:22;;;;;;;5.63;4.87;;;;;;;;;;5049059;28;20437;-72
2021/07/25 07:17:52;;;;;;;7.73;4.33;;;;;;;;;;5053076;28;20492;-72
2021/07/25 07:20:19;;;;;;;4.63;4.07;;;;;;;;;;5053158;28;20907;-71
2021/07/25 07:22:55;;;;;;;8.43;4.03;;;;;;;;;;5050361;28;20789;-70
2021/07/25 07:25:22;;;;;;;8.00;4.77;;;;;;;;;;5053136;28;20918;-72
2021/07/25 07:27:48;;;;;;;4.73;3.67;;;;;;;;;;5058119;28;20449;-71
2021/07/25 07:30:14;;;;;;;9.80;4.80;;;;;;;;;;5052650;28;20456;-71
2021/07/25 07:32:40;;;;;;;5.60;4.20;;;;;;;;;;5053945;28;20456;-69
2021/07/25 07:35:06;;;;;;;8.50;4.97;;;;;;;;;;5054666;28;20465;-71
2021/07/25 07:37:32;;;;;;;6.10;4.73;;;;;;;;;;5056937;28;20475;-70
2021/07/25 07:39:58;;;;;;;7.07;4.70;;;;;;;;;;5053653;28;20475;-69
2021/07/25 07:42:24;;;;;;;6.37;4.17;;;;;;;;;;5067763;28;20460;-69
2021/07/25 07:44:50;;;;;;;7.57;3.80;;;;;;;;;;5052660;28;20408;-67
2021/07/25 07:47:16;;;;;;;5.23;3.70;;;;;;;;;;5071251;28;20440;-71
2021/07/25 07:49:42;;;;;;;6.80;4.10;;;;;;;;;;5057869;28;20857;-72
2021/07/25 07:52:08;;;;;;;6.87;4.50;;;;;;;;;;5052345;28;20913;-72
2021/07/25 07:54:35;;;;;;;5.20;3.83;;;;;;;;;;5052859;28;20966;-72
2021/07/25 07:57:01;;;;;;;6.57;4.17;;;;;;;;;;5050859;28;20445;-72
2021/07/25 07:59:27;;;;;;;7.97;4.20;;;;;;;;;;5052643;28;20409;-72
2021/07/25 08:01:53;;;;;;;5.70;4.10;;;;;;;;;;5066778;28;20456;-72
2021/07/25 08:04:19;;;;;;;5.43;4.57;;;;;;;;;;5077221;22;20487;-85
2021/07/25 08:06:48;;;;;;;5.60;4.50;;;;;;;;;;5078292;28;20451;-86
2021/07/25 08:09:14;;;;;;;8.57;5.00;;;;;;;;;;5078155;28;20408;-86
2021/07/25 08:11:43;;;;;;;6.00;4.17;;;;;;;;;;5095783;28;20451;-85
2021/07/25 08:14:19;;;;;;;5.70;3.83;;;;;;;;;;5097675;28;20404;-85
2021/07/25 08:16:46;;;;;;;5.37;4.03;;;;;;;;;;5079067;28;20447;-87
2021/07/25 08:19:13;;;;;;;4.77;3.40;;;;;;;;;;5098326;22;20546;-71
2021/07/25 08:21:40;;;;;;;5.13;3.77;;;;;;;;;;5088352;28;20543;-71
2021/07/25 08:24:06;;;;;;;6.93;3.93;;;;;;;;;;5093085;28;20396;-71
2021/07/25 08:26:32;;;;;;;5.40;4.27;;;;;;;;;;5091093;28;20416;-71
2021/07/25 08:28:58;;;;;;;6.27;4.07;;;;;;;;;;5092766;28;20864;-70
2021/07/25 08:31:24;;;;;;;8.50;4.43;;;;;;;;;;5090291;28;20447;-70
2021/07/25 08:33:50;;;;;;;4.80;3.27;;;;;;;;;;5117044;22;20528;-71
2021/07/25 08:36:16;;;;;;;5.10;3.80;;;;;;;;;;5101504;28;20419;-71
2021/07/25 08:38:42;;;;;;;5.57;3.90;;;;;;;;;;5113550;28;20391;-72
2021/07/25 08:41:13;;;;;;;4.80;3.80;;;;;;;;;;5111421;28;20415;-71
2021/07/25 08:43:40;;;;;;;5.73;3.60;;;;;;;;;;5111767;28;20466;-71
2021/07/25 08:46:12;;;;;;;6.93;3.30;;;;;;;;;;5095591;28;20427;-72
2021/07/25 08:48:44;;;;;;;4.70;3.63;;;;;;;;;;5072544;28;20408;-71
2021/07/25 08:51:12;;;;;;;6.30;3.70;;;;;;;;;;5072261;28;20499;-71
2021/07/25 08:53:42;;;;;;;5.77;3.90;;;;;;;;;;5079067;28;20527;-71
2021/07/25 08:56:10;;;;;;;6.17;3.53;;;;;;;;;;5079745;28;20876;-71
2021/07/25 08:58:38;;;;;;;8.70;4.07;;;;;;;;;;5091476;28;20419;-70
2021/07/25 09:01:07;;;;;;;5.40;4.40;;;;;;;;;;5085372;28;20437;-71
2021/07/25 09:03:33;;;;;;;7.20;4.47;;;;;;;;;;5073512;28;20509;-71
2021/07/25 09:06:03;;;;;;;4.20;3.73;;;;;;;;;;5086030;28;20541;-71
2021/07/25 09:08:29;;;;;;;5.67;4.30;;;;;;;;;;5113713;28;20395;-72
2021/07/25 09:10:56;;;;;;;5.80;4.13;;;;;;;;;;5107817;28;20430;-71
2021/07/25 09:13:22;;;;;;;4.30;3.53;;;;;;;;;;5094112;28;20465;-71
2021/07/25 09:15:48;;;;;;;6.30;3.73;;;;;;;;;;5096683;28;20411;-72
2021/07/25 09:18:14;;;;;;;5.80;3.63;;;;;;;;;;5080826;28;20973;-72
2021/07/25 09:20:41;;;;;;;5.03;3.63;;;;;;;;;;5082354;28;20400;-72
2021/07/25 09:23:15;;;;;;;5.63;4.40;;;;;;;;;;5088112;28;20536;-72
2021/07/25 09:25:44;;;;;;;5.43;3.80;;;;;;;;;;5083382;28;20405;-72
2021/07/25 09:28:12;;;;;;;7.70;4.07;;;;;;;;;;5122396;28;20446;-72
2021/07/25 09:30:38;;;;;;;7.00;4.37;;;;;;;;;;5122942;28;20399;-72
2021/07/25 09:33:23;;;;;;;5.10;3.77;;;;;;;;;;5117586;28;20460;-72
2021/07/25 09:35:49;;;;;;;7.60;4.10;;;;;;;;;;5106195;28;20832;-71
2021/07/25 09:38:17;;;;;;;10.60;4.13;;;;;;;;;;5114138;28;20426;-71
2021/07/25 09:40:44;;;;;;;5.20;3.80;;;;;;;;;;5114512;28;20434;-71
2021/07/25 09:43:16;;;;;;;6.67;4.30;;;;;;;;;;5113824;28;20494;-71
2021/07/25 09:45:53;;;;;;;6.77;4.57;;;;;;;;;;5116164;28;20397;-71
2021/07/25 09:48:29;;;;;;;7.57;4.30;;;;;;;;;;5075807;28;20467;-71
2021/07/25 09:50:59;;;;;;;9.00;3.93;;;;;;;;;;5075360;28;20440;-71
2021/07/25 09:53:41;;;;;;;7.53;4.03;;;;;;;;;;5115187;28;20443;-71
2021/07/25 09:56:17;;;;;;;9.50;3.77;;;;;;;;;;5100286;28;20416;-72
2021/07/25 09:58:44;;;;;;;5.40;3.60;;;;;;;;;;5075508;28;20407;-71
2021/07/25 10:01:10;;;;;;;5.30;3.60;;;;;;;;;;5075145;28;20405;-71
2021/07/25 10:03:36;;;;;;;4.40;3.37;;;;;;;;;;5075013;28;20529;-71
2021/07/25 10:06:22;;;;;;;5.60;3.67;;;;;;;;;;5075133;28;20489;-72
2021/07/25 10:08:48;;;;;;;6.37;3.00;;;;;;;;;;5076087;28;20401;-71
2021/07/25 10:11:19;;;;;;;4.90;3.27;;;;;;;;;;5077150;28;20404;-71
2021/07/25 10:13:47;;;;;;;4.50;3.30;;;;;;;;;;5076241;28;20448;-71
2021/07/25 10:16:18;;;;;;;5.53;3.50;;;;;;;;;;5077121;28;20923;-71
2021/07/25 10:18:46;;;;;;;5.03;3.60;;;;;;;;;;5076622;28;20381;-71
2021/07/25 10:21:12;;;;;;;14.10;3.53;;;;;;;;;;5077010;28;20493;-71
2021/07/25 10:23:44;;;;;;;4.27;3.37;;;;;;;;;;5097306;28;20487;-72
2021/07/25 10:26:12;;;;;;;5.30;3.30;;;;;;;;;;5095496;28;20452;-71
2021/07/25 10:28:40;;;;;;;3.90;3.40;;;;;;;;;;5114384;28;20437;-71
2021/07/25 10:31:08;;;;;;;6.67;3.17;;;;;;;;;;5115558;28;20403;-71
2021/07/25 10:33:35;;;;;;;5.17;3.13;;;;;;;;;;5113133;28;20470;-71
2021/07/25 10:36:02;;;;;;;6.43;3.17;;;;;;;;;;5115658;28;20399;-72
2021/07/25 10:38:28;;;;;;;4.87;3.13;;;;;;;;;;5090608;28;20420;-71
2021/07/25 10:40:55;;;;;;;5.93;3.20;;;;;;;;;;5075030;28;20763;-71
2021/07/25 10:43:25;;;;;;;4.23;2.93;;;;;;;;;;5109700;28;20478;-71
2021/07/25 10:46:24;;;;;;;7.70;4.90;;;;;;;;;;5113665;28;20407;-71
2021/07/25 10:48:59;;;;;;;3.20;2.50;;;;;;;;;;5029759;28;20401;-72
2021/07/25 10:51:26;;;;;;;4.03;2.70;;;;;;;;;;5075595;28;20763;-71
2021/07/25 10:53:52;;;;;;;4.90;3.57;;;;;;;;;;5115169;28;20471;-71
2021/07/25 10:56:36;;;;;;;6.13;3.07;;;;;;;;;;5113970;28;20395;-71
2021/07/25 10:59:02;;;;;;;5.47;3.57;;;;;;;;;;5094364;28;20457;-71
2021/07/25 11:01:44;;;;;;;5.53;3.10;;;;;;;;;;5092713;28;20916;-71
2021/07/25 11:04:10;;;;;;;7.53;3.27;;;;;;;;;;5091243;28;20448;-71
2021/07/25 11:06:38;;;;;;;4.87;3.03;;;;;;;;;;5091788;28;20388;-71
2021/07/25 11:09:04;;;;;;;4.33;2.87;;;;;;;;;;5074013;28;20489;-72
2021/07/25 11:11:39;;;;;;;3.60;3.00;;;;;;;;;;5074723;28;20429;-71
2021/07/25 11:14:07;;;;;;;4.33;3.10;;;;;;;;;;5114411;28;20441;-71
2021/07/25 11:16:34;;;;;;;6.10;4.10;;;;;;;;;;5112529;28;20542;-71
2021/07/25 11:19:00;;;;;;;4.23;3.30;;;;;;;;;;5114520;28;20402;-72
2021/07/25 11:21:36;;;;;;;7.30;3.60;;;;;;;;;;5110752;28;20446;-71
2021/07/25 11:24:22;;;;;;;6.90;3.43;;;;;;;;;;5073600;28;20871;-71
2021/07/25 11:26:49;;;;;;;7.70;3.40;;;;;;;;;;5073899;28;20860;-71
2021/07/25 11:29:39;;;;;;;4.90;3.50;;;;;;;;;;5073768;28;20405;-71
2021/07/25 11:32:11;;;;;;;4.83;3.50;;;;;;;;;;5070731;28;20929;-71
2021/07/25 11:34:39;;;;;;;4.53;3.33;;;;;;;;;;5093668;28;20455;-71
2021/07/25 11:37:08;;;;;;;4.33;3.10;;;;;;;;;;5096811;28;20418;-72
2021/07/25 11:39:34;;;;;;;5.27;3.80;;;;;;;;;;5114118;28;20406;-71
2021/07/25 11:42:07;;;;;;;5.03;3.60;;;;;;;;;;5111956;28;20454;-71
2021/07/25 11:44:33;;;;;;;5.53;3.37;;;;;;;;;;5113976;28;20414;-70
2021/07/25 11:47:04;;;;;;;5.10;3.50;;;;;;;;;;5112051;28;21033;-71
2021/07/25 11:49:35;;;;;;;4.30;3.70;;;;;;;;;;5113844;28;20895;-72
2021/07/25 11:52:05;;;;;;;4.63;3.60;;;;;;;;;;5108784;28;20424;-72
2021/07/25 11:54:33;;;;;;;5.67;3.70;;;;;;;;;;5094700;28;20444;-72
2021/07/25 11:57:02;;;;;;;6.03;3.67;;;;;;;;;;5095030;28;20419;-72
2021/07/25 11:59:29;;;;;;;5.47;3.47;;;;;;;;;;5114239;28;20764;-72
2021/07/25 12:01:55;;;;;;;5.23;4.37;;;;;;;;;;5111550;28;20479;-72
2021/07/25 12:04:25;;;;;;;4.57;3.77;;;;;;;;;;5113377;28;20931;-72
2021/07/25 12:06:57;;;;;;;5.03;3.60;;;;;;;;;;5111363;28;20387;-71
2021/07/25 12:09:23;;;;;;;4.40;3.47;;;;;;;;;;5113536;28;20902;-71
2021/07/25 12:11:49;;;;;;;6.13;3.27;;;;;;;;;;5110629;28;20448;-72
2021/07/25 12:14:15;;;;;;;4.63;3.73;;;;;;;;;;5071515;28;20424;-71
2021/07/25 12:16:44;;;;;;;5.10;3.40;;;;;;;;;;5072792;28;20458;-72
2021/07/25 12:19:14;;;;;;;4.33;3.23;;;;;;;;;;5112810;28;20410;-71
2021/07/25 12:21:40;;;;;;;5.93;3.10;;;;;;;;;;5113370;28;20390;-71
2021/07/25 12:24:24;;;;;;;3.90;3.20;;;;;;;;;;5072968;28;20866;-71
2021/07/25 12:26:50;;;;;;;4.80;3.67;;;;;;;;;;5072373;28;20409;-71
2021/07/25 12:29:35;;;;;;;4.47;3.57;;;;;;;;;;5095270;28;20887;-71
2021/07/25 12:32:18;;;;;;;4.23;3.50;;;;;;;;;;5092919;28;20399;-71
2021/07/25 12:34:44;;;;;;;4.80;3.37;;;;;;;;;;5112912;28;20446;-71
2021/07/25 12:37:29;;;;;;;7.13;3.10;;;;;;;;;;5110894;28;20439;-71
2021/07/25 12:40:04;;;;;;;4.67;3.50;;;;;;;;;;5113297;28;20402;-71
2021/07/25 12:42:40;;;;;;;4.80;3.47;;;;;;;;;;5111134;28;20878;-71
2021/07/25 12:45:28;;;;;;;5.70;3.50;;;;;;;;;;5113242;28;20418;-71
2021/07/25 12:48:12;;;;;;;5.73;3.30;;;;;;;;;;5096153;28;20424;-71
2021/07/25 12:50:45;;;;;;;6.20;3.83;;;;;;;;;;5089793;28;20441;-71
2021/07/25 12:53:18;;;;;;;3.63;2.90;;;;;;;;;;5115166;28;20527;-72
2021/07/25 12:55:50;;;;;;;4.73;3.20;;;;;;;;;;5117706;28;20398;-71
2021/07/25 12:58:16;;;;;;;4.90;3.30;;;;;;;;;;5094314;28;20420;-71
2021/07/25 13:03:52;;;;;;;7.63;3.30;;;;;;;;;;5115563;28;20462;-72
2021/07/25 13:06:19;;;;;;;4.80;3.90;;;;;;;;;;5117448;28;20399;-71
2021/07/25 13:08:50;;;;;;;4.00;3.07;;;;;;;;;;5115264;28;20433;-71
2021/07/25 13:11:16;;;;;;;6.80;3.13;;;;;;;;;;5117330;28;20402;-71
2021/07/25 13:13:47;;;;;;;3.70;3.27;;;;;;;;;;5114965;28;20529;-71
2021/07/25 13:16:15;;;;;;;7.67;3.90;;;;;;;;;;5117495;28;20828;-71
2021/07/25 13:18:42;;;;;;;5.03;3.70;;;;;;;;;;5114872;28;20426;-71
2021/07/25 13:21:08;;;;;;;4.00;3.30;;;;;;;;;;5116697;28;20403;-71
2021/07/25 13:23:35;;;;;;;6.67;3.80;;;;;;;;;;5114947;28;20991;-71
2021/07/25 13:26:01;;;;;;;5.00;3.33;;;;;;;;;;5116908;28;20391;-71
2021/07/25 13:28:27;;;;;;;6.43;3.60;;;;;;;;;;5114660;28;20430;-71
2021/07/25 13:30:54;;;;;;;4.10;3.33;;;;;;;;;;5116428;28;20986;-71
2021/07/25 13:33:20;;;;;;;4.10;2.93;;;;;;;;;;5111495;28;20466;-71
2021/07/25 13:35:49;;;;;;;5.37;4.57;;;;;;;;;;5105839;28;20427;-71
2021/07/25 13:38:15;;;;;;;4.83;4.20;;;;;;;;;;5103883;28;20426;-71
2021/07/25 13:40:41;;;;;;;7.23;4.90;;;;;;;;;;5116314;28;20498;-71
2021/07/25 13:43:11;;;;;;;7.60;4.63;;;;;;;;;;5114245;28;20603;-71
2021/07/25 13:45:39;;;;;;;7.23;4.30;;;;;;;;;;5116421;28;20424;-70
2021/07/25 13:48:05;;;;;;;6.03;4.80;;;;;;;;;;5114380;28;20419;-70
2021/07/25 13:50:31;;;;;;;8.83;5.47;;;;;;;;;;5099073;28;20424;-71
2021/07/25 13:52:57;;;;;;;6.60;5.43;;;;;;;;;;5089261;28;20515;-72
2021/07/25 13:55:23;;;;;;;6.03;4.80;;;;;;;;;;5075357;28;20466;-71
2021/07/25 13:57:49;;;;;;;5.63;4.80;;;;;;;;;;5075983;28;20437;-72
2021/07/25 14:00:15;;;;;;;6.90;5.20;;;;;;;;;;5077032;28;20411;-72
2021/07/25 14:02:44;;;;;;;5.70;4.80;;;;;;;;;;5080665;28;20506;-72
2021/07/25 14:05:10;;;;;;;6.57;5.10;;;;;;;;;;5079115;28;20412;-72
2021/07/25 14:07:36;;;;;;;5.50;4.50;;;;;;;;;;5077015;28;20423;-71
2021/07/25 14:10:02;;;;;;;6.73;4.97;;;;;;;;;;5075836;28;20492;-70
2021/07/25 14:12:28;;;;;;;5.77;5.17;;;;;;;;;;5076437;28;20433;-71
2021/07/25 14:14:54;;;;;;;7.40;5.13;;;;;;;;;;5115763;28;20796;-71
2021/07/25 14:17:20;;;;;;;9.73;5.60;;;;;;;;;;5114587;28;20413;-71
2021/07/25 14:19:46;;;;;;;6.90;5.20;;;;;;;;;;5114925;28;20898;-71
2021/07/25 14:22:12;;;;;;;6.20;5.60;;;;;;;;;;5115598;28;20458;-71
2021/07/25 14:24:38;;;;;;;7.10;5.27;;;;;;;;;;5092144;28;20478;-71
2021/07/25 14:27:04;;;;;;;8.03;5.07;;;;;;;;;;5094908;28;20392;-71
2021/07/25 14:29:30;;;;;;;6.60;4.53;;;;;;;;;;5111167;28;20845;-71
2021/07/25 14:31:56;;;;;;;6.20;4.63;;;;;;;;;;5115975;28;20399;-71
2021/07/25 14:34:22;;;;;;;7.90;4.63;;;;;;;;;;5118323;22;20488;-70
2021/07/25 14:36:48;;;;;;;7.30;5.47;;;;;;;;;;5074465;28;20393;-69
2021/07/25 14:39:14;;;;;;;7.47;5.60;;;;;;;;;;5060398;28;20410;-71
2021/07/25 14:41:40;;;;;;;7.10;5.00;;;;;;;;;;5083993;28;20827;-70
2021/07/25 14:44:06;;;;;;;6.83;5.07;;;;;;;;;;5094413;28;21014;-70
2021/07/25 14:46:32;;;;;;;8.30;5.33;;;;;;;;;;5079285;28;20424;-70
2021/07/25 14:48:58;;;;;;;6.40;5.17;;;;;;;;;;5074290;28;20807;-69